Terminal Aerodrome Forecast
Issued by NWS

Home | Current Version | Previous Version | Text Only | Print | Product List | Glossary On
Versions: 1 2 3 4 5 6 7 8 9 10 11 12 13 14 15 16 17 18 19 20 21 22 23 24 25
000
FTUS46 KLOX 080001 RRA
TAFOXR
TAF
KOXR 080001Z 0800/0824 26010KT P6SM SCT017
     FM080300 27007KT P6SM SKC
     FM080500 27005KT P6SM SCT012
     FM080900 VRB03KT P6SM BKN017
     FM081300 VRB03KT 6SM -DZ BR BKN010 OVC020
     FM081800 27009KT P6SM BKN025
     FM082000 26012KT P6SM SCT025=

USA.gov is the U.S. government's official web portal to all federal, state and local government web resources and services.